createdAt,value
2023-01-05T00:02:24.935Z,50.12
2023-01-05T00:07:26.801Z,50.08
2023-01-05T00:12:46.877Z,49.92
2023-01-05T00:18:07.117Z,50.07
2023-01-05T00:23:09.513Z,50.08
2023-01-05T00:28:11.234Z,49.80
2023-01-05T00:33:17.716Z,49.92
2023-01-05T00:38:19.362Z,49.71
2023-01-05T00:43:21.181Z,49.76
2023-01-05T00:48:23.035Z,49.91
2023-01-05T00:53:24.698Z,49.78
2023-01-05T00:58:26.360Z,49.73
2023-01-05T01:03:28.031Z,49.91
2023-01-05T01:08:30.103Z,49.61
2023-01-05T01:13:32.149Z,49.71
2023-01-05T01:18:34.023Z,49.53
2023-01-05T01:23:39.691Z,49.67
2023-01-05T01:28:41.359Z,49.70
2023-01-05T01:33:43.053Z,49.90
2023-01-05T01:38:44.718Z,49.43
2023-01-05T01:43:49.491Z,49.47
2023-01-05T01:49:01.311Z,49.41
2023-01-05T01:54:06.351Z,49.63
2023-01-05T01:59:08.828Z,49.42
2023-01-05T02:04:12.014Z,49.35
2023-01-05T02:09:13.758Z,49.38
2023-01-05T02:14:27.669Z,49.69
2023-01-05T02:19:53.878Z,49.23
2023-01-05T02:24:58.484Z,49.41
2023-01-05T02:30:15.359Z,49.45
2023-01-05T02:35:23.069Z,49.54
2023-01-05T02:40:33.186Z,49.25
2023-01-05T02:45:34.848Z,49.31
2023-01-05T02:51:08.638Z,49.50
2023-01-05T02:56:20.694Z,49.43
2023-01-05T03:01:36.163Z,49.47
2023-01-05T03:06:57.413Z,49.33
2023-01-05T03:12:29.274Z,49.15
2023-01-05T03:17:50.023Z,49.10
2023-01-05T03:23:12.055Z,49.39
2023-01-05T03:28:57.660Z,49.50
2023-01-05T03:34:36.347Z,49.30
2023-01-05T03:39:42.441Z,49.25
2023-01-05T03:44:46.199Z,49.31
2023-01-05T03:49:47.918Z,49.17
2023-01-05T03:54:49.873Z,49.23
2023-01-05T03:59:51.612Z,49.13
2023-01-05T04:04:53.285Z,49.10
2023-01-05T04:09:55.008Z,48.87
2023-01-05T04:14:56.652Z,49.31
2023-01-05T04:19:58.484Z,48.79
2023-01-05T04:25:00.222Z,49.07
2023-01-05T04:30:01.892Z,48.87
2023-01-05T04:35:10.586Z,48.87
2023-01-05T04:40:13.156Z,49.17
2023-01-05T04:45:14.844Z,49.52
2023-01-05T04:50:16.605Z,49.02
2023-01-05T04:55:18.398Z,49.18
2023-01-05T05:00:20.146Z,49.10
2023-01-05T05:05:21.896Z,48.88
2023-01-05T05:10:23.636Z,48.98
2023-01-05T05:15:25.277Z,48.84
2023-01-05T05:20:27.172Z,49.07
2023-01-05T05:25:28.961Z,48.90
2023-01-05T05:30:30.729Z,48.79
2023-01-05T05:35:32.373Z,48.81
2023-01-05T05:40:34.210Z,48.52
2023-01-05T05:45:36.208Z,48.73
2023-01-05T05:50:37.926Z,49.03
2023-01-05T05:55:39.784Z,48.92
2023-01-05T06:00:41.800Z,48.73
2023-01-05T06:05:44.796Z,48.85
2023-01-05T06:10:46.608Z,48.44
2023-01-05T06:15:48.540Z,48.81
2023-01-05T06:20:50.267Z,48.38
2023-01-05T06:25:51.921Z,48.37
2023-01-05T06:30:53.748Z,48.68
2023-01-05T06:35:55.389Z,48.73
2023-01-05T06:40:58.217Z,48.66
2023-01-05T06:45:59.906Z,48.67
2023-01-05T06:51:01.616Z,48.19
2023-01-05T06:56:03.345Z,48.43
2023-01-05T07:01:05.271Z,48.63
2023-01-05T07:06:12.861Z,48.28
2023-01-05T07:11:16.325Z,48.33
2023-01-05T07:16:18.454Z,48.56
2023-01-05T07:21:20.597Z,48.86
2023-01-05T07:26:22.263Z,48.74
2023-01-05T07:31:24.080Z,48.29
2023-01-05T07:36:25.965Z,48.63
2023-01-05T07:41:27.856Z,48.43
2023-01-05T07:46:29.502Z,48.26
2023-01-05T07:51:31.182Z,48.35
2023-01-05T07:56:32.940Z,47.85
2023-01-05T08:01:34.675Z,48.14
2023-01-05T08:06:36.649Z,47.92
2023-01-05T08:11:38.287Z,47.91
2023-01-05T08:16:40.233Z,47.40
2023-01-05T08:21:42.001Z,47.81
2023-01-05T08:26:43.871Z,48.14
2023-01-05T08:31:45.635Z,47.85
2023-01-05T08:36:47.498Z,47.84
2023-01-05T08:41:49.253Z,47.83
2023-01-05T08:46:51.250Z,47.63
2023-01-05T08:51:53.172Z,47.92
2023-01-05T08:56:54.902Z,48.11
2023-01-05T09:01:56.751Z,48.36
2023-01-05T09:06:58.744Z,48.36
2023-01-05T09:12:00.429Z,48.15
2023-01-05T09:17:09.791Z,48.24
2023-01-05T09:22:11.968Z,48.49
2023-01-05T09:27:13.738Z,47.99
2023-01-05T09:32:15.750Z,47.80
2023-01-05T09:37:17.751Z,48.18
2023-01-05T09:42:22.925Z,47.90
2023-01-05T09:47:35.101Z,49.85
2023-01-05T09:52:38.692Z,50.88
2023-01-05T09:57:41.243Z,50.55
2023-01-05T10:03:08.934Z,50.57
2023-01-05T10:08:32.644Z,49.96
2023-01-05T10:13:37.846Z,49.66
2023-01-05T10:18:39.843Z,49.19
2023-01-05T10:23:47.536Z,48.98
2023-01-05T10:29:22.305Z,48.75
2023-01-05T10:34:47.710Z,48.22
2023-01-05T10:39:58.563Z,48.28
2023-01-05T10:45:03.668Z,48.06
2023-01-05T10:50:20.622Z,47.60
2023-01-05T10:55:24.311Z,47.41
2023-01-05T11:00:42.160Z,47.43
2023-01-05T11:05:48.552Z,47.04
2023-01-05T11:10:53.285Z,47.43
2023-01-05T11:16:22.965Z,48.00
2023-01-05T11:21:44.539Z,48.18
2023-01-05T11:26:58.940Z,47.45
2023-01-05T11:32:06.288Z,47.75
2023-01-05T11:37:28.147Z,47.44
2023-01-05T11:42:31.889Z,46.85
2023-01-05T11:47:50.610Z,46.90
2023-01-05T11:53:02.819Z,46.88
2023-01-05T11:58:14.816Z,46.86
2023-01-05T12:03:58.636Z,46.58
2023-01-05T12:09:10.128Z,46.23
2023-01-05T12:14:26.909Z,46.73
2023-01-05T12:19:34.470Z,46.67
2023-01-05T12:24:38.981Z,46.68
2023-01-05T12:36:00.183Z,46.49
2023-01-05T12:41:20.756Z,46.75
2023-01-05T12:46:48.610Z,46.65
2023-01-05T12:52:12.870Z,48.31
2023-01-05T12:57:23.582Z,48.61
2023-01-05T13:02:33.463Z,48.27
2023-01-05T13:08:07.799Z,48.16
2023-01-05T13:13:21.001Z,47.60
2023-01-05T13:18:25.935Z,47.83
2023-01-05T13:23:31.298Z,47.52
2023-01-05T13:28:34.786Z,47.67
2023-01-05T13:34:32.104Z,47.66
2023-01-05T13:39:58.901Z,47.57
2023-01-05T13:45:20.032Z,47.51
2023-01-05T13:50:39.481Z,47.58
2023-01-05T13:55:48.354Z,47.50
2023-01-05T14:00:52.935Z,47.48
2023-01-05T14:05:57.838Z,47.40
2023-01-05T14:11:19.878Z,47.47
2023-01-05T14:16:33.497Z,47.77
2023-01-05T14:21:50.254Z,47.82
2023-01-05T14:27:00.778Z,47.82
2023-01-05T14:32:08.017Z,48.44
2023-01-05T14:37:22.812Z,48.18
2023-01-05T14:42:34.586Z,48.57
2023-01-05T14:47:46.253Z,48.51
2023-01-05T14:53:00.110Z,48.67
2023-01-05T14:58:14.403Z,48.30
2023-01-05T15:03:22.132Z,47.99
2023-01-05T15:08:51.618Z,48.39
2023-01-05T15:14:21.084Z,48.50
2023-01-05T15:19:31.970Z,48.18
2023-01-05T15:24:46.110Z,48.59
2023-01-05T15:30:12.647Z,49.13
2023-01-05T15:35:36.985Z,49.41
2023-01-05T15:40:38.722Z,49.16
2023-01-05T15:45:43.440Z,49.08
2023-01-05T15:50:47.987Z,49.03
2023-01-05T15:55:52.138Z,49.04
2023-01-05T16:01:15.263Z,49.46
2023-01-05T16:06:23.892Z,49.35
2023-01-05T16:11:31.779Z,50.02
2023-01-05T16:16:53.991Z,50.30
2023-01-05T16:22:08.276Z,50.20
2023-01-05T16:27:13.287Z,49.71
2023-01-05T16:32:32.012Z,49.52
2023-01-05T16:37:33.724Z,49.79
2023-01-05T16:42:45.807Z,49.83
2023-01-05T16:47:47.591Z,49.83
2023-01-05T16:53:16.189Z,49.86
2023-01-05T16:58:29.971Z,50.09
2023-01-05T17:03:32.676Z,49.95
2023-01-05T17:08:37.776Z,49.74
2023-01-05T17:13:47.864Z,49.83
2023-01-05T17:18:50.148Z,49.82
2023-01-05T17:23:54.883Z,49.58
2023-01-05T17:34:05.209Z,50.35
2023-01-05T17:39:07.001Z,50.93
2023-01-05T17:44:08.827Z,50.98
2023-01-05T17:49:19.464Z,50.61
2023-01-05T17:54:21.215Z,50.53
2023-01-05T17:59:22.939Z,50.74
2023-01-05T18:04:26.274Z,50.74
2023-01-05T18:09:29.337Z,49.86
2023-01-05T18:14:31.023Z,49.65
2023-01-05T18:19:33.678Z,49.72
2023-01-05T18:24:35.503Z,50.01
2023-01-05T18:29:38.055Z,50.08
2023-01-05T18:34:40.221Z,49.96
2023-01-05T18:39:43.478Z,49.91
2023-01-05T18:44:45.459Z,49.94
2023-01-05T18:49:47.187Z,49.80
2023-01-05T18:54:49.197Z,49.78
2023-01-05T18:59:51.896Z,50.07
2023-01-05T19:04:53.664Z,50.96
2023-01-05T19:09:55.506Z,50.50
2023-01-05T19:14:57.485Z,50.80
2023-01-05T19:19:59.438Z,51.38
2023-01-05T19:25:01.635Z,51.75
2023-01-05T19:30:03.481Z,52.32
2023-01-05T19:35:06.370Z,52.62
2023-01-05T19:40:09.989Z,55.01
2023-01-05T19:45:11.872Z,52.71
2023-01-05T19:50:14.807Z,51.90
2023-01-05T19:55:16.537Z,52.15
2023-01-05T20:00:18.327Z,52.13
2023-01-05T20:05:20.034Z,52.04
2023-01-05T20:10:22.566Z,51.98
2023-01-05T20:15:24.578Z,51.61
2023-01-05T20:20:26.283Z,51.75
2023-01-05T20:25:27.974Z,52.14
2023-01-05T20:30:29.678Z,51.39
2023-01-05T20:35:31.355Z,51.32
2023-01-05T20:40:33.076Z,51.17
2023-01-05T20:45:34.796Z,51.20
2023-01-05T20:50:36.737Z,51.33
2023-01-05T20:55:40.374Z,51.00
2023-01-05T21:01:10.505Z,50.89
2023-01-05T21:06:05.976Z,51.19
2023-01-05T21:11:15.976Z,50.83
2023-01-05T21:16:20.964Z,51.39
2023-01-05T21:21:24.569Z,51.72
2023-01-05T21:26:26.585Z,51.48
2023-01-05T21:31:28.338Z,51.33
2023-01-05T21:36:31.993Z,51.07
2023-01-05T21:41:53.107Z,50.95
2023-01-05T21:46:54.786Z,50.75
2023-01-05T21:52:14.985Z,50.74
2023-01-05T21:57:17.666Z,51.89
2023-01-05T22:02:19.487Z,52.09
2023-01-05T22:07:21.199Z,52.20
2023-01-05T22:12:22.874Z,52.26
2023-01-05T22:17:24.936Z,52.72
2023-01-05T22:22:26.677Z,52.34
2023-01-05T22:27:29.768Z,52.01
2023-01-05T22:32:31.513Z,51.40
2023-01-05T22:37:33.215Z,51.82
2023-01-05T22:42:35.141Z,51.49
2023-01-05T22:47:36.881Z,51.33
2023-01-05T22:52:38.520Z,51.46
2023-01-05T22:57:40.183Z,51.40
2023-01-05T23:02:42.039Z,50.95
2023-01-05T23:07:43.963Z,50.98
2023-01-05T23:12:45.685Z,51.00
2023-01-05T23:17:47.354Z,50.92
2023-01-05T23:22:48.992Z,50.49
2023-01-05T23:27:52.745Z,50.74
2023-01-05T23:32:54.700Z,50.79
2023-01-05T23:37:56.388Z,50.24
2023-01-05T23:42:58.033Z,50.23
2023-01-05T23:48:00.291Z,50.39
2023-01-05T23:53:03.903Z,50.32
2023-01-05T23:58:06.549Z,50.19
